sensor_id;sensor_type;location;lat;lon;timestamp;temperature;humidity
32787;DHT22;19139;49.372;8.580;2023-04-24T00:02:04;22.30;81.00
32787;DHT22;19139;49.372;8.580;2023-04-24T00:04:30;22.30;81.00
32787;DHT22;19139;49.372;8.580;2023-04-24T00:06:58;22.30;81.00
32787;DHT22;19139;49.372;8.580;2023-04-24T00:09:26;22.30;81.00
32787;DHT22;19139;49.372;8.580;2023-04-24T00:11:57;22.30;81.00
32787;DHT22;19139;49.372;8.580;2023-04-24T00:14:24;22.30;81.00
32787;DHT22;19139;49.372;8.580;2023-04-24T00:16:51;22.30;81.00
32787;DHT22;19139;49.372;8.580;2023-04-24T00:19:18;22.30;81.00
32787;DHT22;19139;49.372;8.580;2023-04-24T00:22:02;22.30;81.00
32787;DHT22;19139;49.372;8.580;2023-04-24T00:24:29;22.30;81.00
32787;DHT22;19139;49.372;8.580;2023-04-24T00:26:55;22.30;81.00
32787;DHT22;19139;49.372;8.580;2023-04-24T00:29:22;22.30;81.00
32787;DHT22;19139;49.372;8.580;2023-04-24T00:31:48;22.30;81.00
32787;DHT22;19139;49.372;8.580;2023-04-24T00:34:15;22.30;81.00
32787;DHT22;19139;49.372;8.580;2023-04-24T00:36:42;22.30;81.00
32787;DHT22;19139;49.372;8.580;2023-04-24T00:39:08;22.30;81.00
32787;DHT22;19139;49.372;8.580;2023-04-24T00:41:36;22.30;81.00
32787;DHT22;19139;49.372;8.580;2023-04-24T00:44:02;22.20;80.90
32787;DHT22;19139;49.372;8.580;2023-04-24T00:46:30;22.30;81.00
32787;DHT22;19139;49.372;8.580;2023-04-24T00:48:59;22.30;81.00
32787;DHT22;19139;49.372;8.580;2023-04-24T00:51:25;22.20;80.80
32787;DHT22;19139;49.372;8.580;2023-04-24T00:53:53;22.30;81.00
32787;DHT22;19139;49.372;8.580;2023-04-24T00:56:25;22.30;81.00
32787;DHT22;19139;49.372;8.580;2023-04-24T00:58:51;22.30;80.90
32787;DHT22;19139;49.372;8.580;2023-04-24T01:01:20;22.30;81.00
32787;DHT22;19139;49.372;8.580;2023-04-24T01:03:49;22.20;80.80
32787;DHT22;19139;49.372;8.580;2023-04-24T01:06:18;22.30;81.00
32787;DHT22;19139;49.372;8.580;2023-04-24T01:08:46;22.20;81.00
32787;DHT22;19139;49.372;8.580;2023-04-24T01:11:14;22.20;80.90
32787;DHT22;19139;49.372;8.580;2023-04-24T01:13:41;22.20;80.90
32787;DHT22;19139;49.372;8.580;2023-04-24T01:16:07;22.20;80.90
32787;DHT22;19139;49.372;8.580;2023-04-24T01:18:34;22.20;80.80
32787;DHT22;19139;49.372;8.580;2023-04-24T01:21:03;22.20;80.80
32787;DHT22;19139;49.372;8.580;2023-04-24T01:23:30;22.20;80.90
32787;DHT22;19139;49.372;8.580;2023-04-24T01:25:57;22.20;80.80
32787;DHT22;19139;49.372;8.580;2023-04-24T01:28:24;22.20;80.80
32787;DHT22;19139;49.372;8.580;2023-04-24T01:30:51;22.20;80.90
32787;DHT22;19139;49.372;8.580;2023-04-24T01:33:21;22.20;80.90
32787;DHT22;19139;49.372;8.580;2023-04-24T01:35:48;22.20;80.90
32787;DHT22;19139;49.372;8.580;2023-04-24T01:38:15;22.20;80.80
32787;DHT22;19139;49.372;8.580;2023-04-24T01:40:42;22.20;80.90
32787;DHT22;19139;49.372;8.580;2023-04-24T01:43:08;22.20;80.80
32787;DHT22;19139;49.372;8.580;2023-04-24T01:45:35;22.20;80.90
32787;DHT22;19139;49.372;8.580;2023-04-24T01:48:02;22.20;80.80
32787;DHT22;19139;49.372;8.580;2023-04-24T01:50:29;22.20;80.90
32787;DHT22;19139;49.372;8.580;2023-04-24T01:53:01;22.20;80.80
32787;DHT22;19139;49.372;8.580;2023-04-24T01:55:28;22.20;80.80
32787;DHT22;19139;49.372;8.580;2023-04-24T01:57:55;22.20;80.90
32787;DHT22;19139;49.372;8.580;2023-04-24T02:00:22;22.20;80.80
32787;DHT22;19139;49.372;8.580;2023-04-24T02:02:49;22.20;80.90
32787;DHT22;19139;49.372;8.580;2023-04-24T02:05:16;22.20;80.90
32787;DHT22;19139;49.372;8.580;2023-04-24T02:07:43;22.20;80.80
32787;DHT22;19139;49.372;8.580;2023-04-24T02:10:10;22.20;80.90
32787;DHT22;19139;49.372;8.580;2023-04-24T02:12:37;22.20;80.90
32787;DHT22;19139;49.372;8.580;2023-04-24T02:15:04;22.20;80.90
32787;DHT22;19139;49.372;8.580;2023-04-24T02:17:30;22.20;80.90
32787;DHT22;19139;49.372;8.580;2023-04-24T02:19:57;22.20;80.90
32787;DHT22;19139;49.372;8.580;2023-04-24T02:22:24;22.20;80.90
32787;DHT22;19139;49.372;8.580;2023-04-24T02:24:51;22.20;81.00
32787;DHT22;19139;49.372;8.580;2023-04-24T02:27:17;22.20;80.90
32787;DHT22;19139;49.372;8.580;2023-04-24T02:29:44;22.20;80.90
32787;DHT22;19139;49.372;8.580;2023-04-24T02:32:11;22.20;80.90
32787;DHT22;19139;49.372;8.580;2023-04-24T02:34:38;22.20;80.90
32787;DHT22;19139;49.372;8.580;2023-04-24T02:37:05;22.10;80.80
32787;DHT22;19139;49.372;8.580;2023-04-24T02:39:37;22.20;80.90
32787;DHT22;19139;49.372;8.580;2023-04-24T02:42:08;22.10;80.80
32787;DHT22;19139;49.372;8.580;2023-04-24T02:44:40;22.20;80.90
32787;DHT22;19139;49.372;8.580;2023-04-24T02:47:07;22.20;80.90
32787;DHT22;19139;49.372;8.580;2023-04-24T02:49:35;22.20;80.90
32787;DHT22;19139;49.372;8.580;2023-04-24T02:52:02;22.20;81.60
32787;DHT22;19139;49.372;8.580;2023-04-24T02:54:28;22.20;80.90
32787;DHT22;19139;49.372;8.580;2023-04-24T02:56:55;22.20;80.90
32787;DHT22;19139;49.372;8.580;2023-04-24T02:59:23;22.10;80.80
32787;DHT22;19139;49.372;8.580;2023-04-24T03:01:49;22.20;80.90
32787;DHT22;19139;49.372;8.580;2023-04-24T03:04:16;22.10;80.80
32787;DHT22;19139;49.372;8.580;2023-04-24T03:06:47;22.10;80.80
32787;DHT22;19139;49.372;8.580;2023-04-24T03:09:14;22.10;80.80
32787;DHT22;19139;49.372;8.580;2023-04-24T03:11:40;22.10;80.80
32787;DHT22;19139;49.372;8.580;2023-04-24T03:14:07;22.10;80.70
32787;DHT22;19139;49.372;8.580;2023-04-24T03:16:33;22.10;80.80
32787;DHT22;19139;49.372;8.580;2023-04-24T03:19:00;22.10;80.80
32787;DHT22;19139;49.372;8.580;2023-04-24T03:21:27;22.10;80.80
32787;DHT22;19139;49.372;8.580;2023-04-24T03:23:54;22.10;80.80
32787;DHT22;19139;49.372;8.580;2023-04-24T03:26:21;22.10;80.80
32787;DHT22;19139;49.372;8.580;2023-04-24T03:28:47;22.10;80.80
32787;DHT22;19139;49.372;8.580;2023-04-24T03:31:14;22.10;80.80
32787;DHT22;19139;49.372;8.580;2023-04-24T03:33:42;22.10;80.80
32787;DHT22;19139;49.372;8.580;2023-04-24T03:36:08;22.10;80.80
32787;DHT22;19139;49.372;8.580;2023-04-24T03:38:40;22.10;80.70
32787;DHT22;19139;49.372;8.580;2023-04-24T03:41:06;22.10;80.70
32787;DHT22;19139;49.372;8.580;2023-04-24T03:43:38;22.10;80.80
32787;DHT22;19139;49.372;8.580;2023-04-24T03:46:10;22.10;80.70
32787;DHT22;19139;49.372;8.580;2023-04-24T03:48:37;22.10;80.70
32787;DHT22;19139;49.372;8.580;2023-04-24T03:51:08;22.10;80.70
32787;DHT22;19139;49.372;8.580;2023-04-24T03:53:34;22.10;80.70
32787;DHT22;19139;49.372;8.580;2023-04-24T03:56:01;22.10;80.70
32787;DHT22;19139;49.372;8.580;2023-04-24T03:58:28;22.10;80.80
32787;DHT22;19139;49.372;8.580;2023-04-24T04:00:54;22.10;80.70
32787;DHT22;19139;49.372;8.580;2023-04-24T04:03:23;22.10;80.70
32787;DHT22;19139;49.372;8.580;2023-04-24T04:05:50;22.10;80.70
32787;DHT22;19139;49.372;8.580;2023-04-24T04:08:17;22.10;80.80
32787;DHT22;19139;49.372;8.580;2023-04-24T04:10:43;22.10;80.80
32787;DHT22;19139;49.372;8.580;2023-04-24T04:13:10;22.10;80.80
32787;DHT22;19139;49.372;8.580;2023-04-24T04:15:37;22.00;80.70
32787;DHT22;19139;49.372;8.580;2023-04-24T04:18:03;22.10;80.80
32787;DHT22;19139;49.372;8.580;2023-04-24T04:20:30;22.10;80.80
32787;DHT22;19139;49.372;8.580;2023-04-24T04:22:56;22.10;80.80
32787;DHT22;19139;49.372;8.580;2023-04-24T04:25:23;22.10;80.80
32787;DHT22;19139;49.372;8.580;2023-04-24T04:27:50;22.10;80.80
32787;DHT22;19139;49.372;8.580;2023-04-24T04:30:17;22.10;80.80
32787;DHT22;19139;49.372;8.580;2023-04-24T04:32:44;22.10;80.80
32787;DHT22;19139;49.372;8.580;2023-04-24T04:35:11;22.00;80.70
32787;DHT22;19139;49.372;8.580;2023-04-24T04:37:37;22.00;80.80
32787;DHT22;19139;49.372;8.580;2023-04-24T04:40:05;22.00;80.80
32787;DHT22;19139;49.372;8.580;2023-04-24T04:42:37;22.00;80.70
32787;DHT22;19139;49.372;8.580;2023-04-24T04:45:08;22.00;80.80
32787;DHT22;19139;49.372;8.580;2023-04-24T04:47:38;22.00;80.80
32787;DHT22;19139;49.372;8.580;2023-04-24T04:50:06;22.00;81.60
32787;DHT22;19139;49.372;8.580;2023-04-24T04:52:32;22.00;80.80
32787;DHT22;19139;49.372;8.580;2023-04-24T04:54:59;22.00;80.80
32787;DHT22;19139;49.372;8.580;2023-04-24T04:57:26;22.00;80.80
32787;DHT22;19139;49.372;8.580;2023-04-24T04:59:53;22.00;80.80
32787;DHT22;19139;49.372;8.580;2023-04-24T05:02:19;22.00;80.80
32787;DHT22;19139;49.372;8.580;2023-04-24T05:04:51;22.00;80.80
32787;DHT22;19139;49.372;8.580;2023-04-24T05:07:18;22.00;80.80
32787;DHT22;19139;49.372;8.580;2023-04-24T05:09:45;22.00;80.80
32787;DHT22;19139;49.372;8.580;2023-04-24T05:12:12;22.00;80.80
32787;DHT22;19139;49.372;8.580;2023-04-24T05:14:38;22.00;80.80
32787;DHT22;19139;49.372;8.580;2023-04-24T05:17:05;22.00;80.80
32787;DHT22;19139;49.372;8.580;2023-04-24T05:19:36;22.00;80.80
32787;DHT22;19139;49.372;8.580;2023-04-24T05:22:04;22.00;80.80
32787;DHT22;19139;49.372;8.580;2023-04-24T05:24:38;22.00;80.90
32787;DHT22;19139;49.372;8.580;2023-04-24T05:27:04;22.00;80.80
32787;DHT22;19139;49.372;8.580;2023-04-24T05:29:36;22.00;80.80
32787;DHT22;19139;49.372;8.580;2023-04-24T05:32:03;22.00;80.80
32787;DHT22;19139;49.372;8.580;2023-04-24T05:34:29;22.00;80.80
32787;DHT22;19139;49.372;8.580;2023-04-24T05:36:56;22.00;80.80
32787;DHT22;19139;49.372;8.580;2023-04-24T05:39:28;22.00;80.80
32787;DHT22;19139;49.372;8.580;2023-04-24T05:42:00;22.00;80.80
32787;DHT22;19139;49.372;8.580;2023-04-24T05:44:27;22.00;80.80
32787;DHT22;19139;49.372;8.580;2023-04-24T05:46:54;22.00;80.80
32787;DHT22;19139;49.372;8.580;2023-04-24T05:49:27;22.00;80.80
32787;DHT22;19139;49.372;8.580;2023-04-24T05:51:53;22.00;80.80
32787;DHT22;19139;49.372;8.580;2023-04-24T05:54:25;22.00;80.90
32787;DHT22;19139;49.372;8.580;2023-04-24T05:56:51;21.90;80.80
32787;DHT22;19139;49.372;8.580;2023-04-24T05:59:23;22.00;80.80
32787;DHT22;19139;49.372;8.580;2023-04-24T06:01:54;21.90;80.80
32787;DHT22;19139;49.372;8.580;2023-04-24T06:04:26;22.00;80.90
32787;DHT22;19139;49.372;8.580;2023-04-24T06:06:57;21.90;80.80
32787;DHT22;19139;49.372;8.580;2023-04-24T06:09:25;22.00;80.80
32787;DHT22;19139;49.372;8.580;2023-04-24T06:11:52;22.00;80.80
32787;DHT22;19139;49.372;8.580;2023-04-24T06:14:19;21.90;80.70
32787;DHT22;19139;49.372;8.580;2023-04-24T06:16:46;22.00;80.80
32787;DHT22;19139;49.372;8.580;2023-04-24T06:19:15;22.00;80.80
32787;DHT22;19139;49.372;8.580;2023-04-24T06:21:47;21.90;80.80
32787;DHT22;19139;49.372;8.580;2023-04-24T06:24:18;22.00;80.80
32787;DHT22;19139;49.372;8.580;2023-04-24T06:26:50;21.90;80.80
32787;DHT22;19139;49.372;8.580;2023-04-24T06:29:17;21.90;80.80
32787;DHT22;19139;49.372;8.580;2023-04-24T06:31:43;22.00;80.80
32787;DHT22;19139;49.372;8.580;2023-04-24T06:34:10;21.90;80.60
32787;DHT22;19139;49.372;8.580;2023-04-24T06:36:37;21.90;80.60
32787;DHT22;19139;49.372;8.580;2023-04-24T06:39:09;21.90;80.70
32787;DHT22;19139;49.372;8.580;2023-04-24T06:41:40;21.90;80.60
32787;DHT22;19139;49.372;8.580;2023-04-24T06:44:12;21.90;80.70
32787;DHT22;19139;49.372;8.580;2023-04-24T06:46:41;21.90;80.70
32787;DHT22;19139;49.372;8.580;2023-04-24T06:49:12;21.90;80.80
32787;DHT22;19139;49.372;8.580;2023-04-24T06:51:47;21.90;80.50
32787;DHT22;19139;49.372;8.580;2023-04-24T06:54:18;21.90;80.70
32787;DHT22;19139;49.372;8.580;2023-04-24T06:56:50;21.90;80.30
32787;DHT22;19139;49.372;8.580;2023-04-24T06:59:23;21.90;80.70
32787;DHT22;19139;49.372;8.580;2023-04-24T07:01:56;21.90;80.70
32787;DHT22;19139;49.372;8.580;2023-04-24T07:04:27;21.90;80.80
32787;DHT22;19139;49.372;8.580;2023-04-24T07:06:55;21.90;80.70
32787;DHT22;19139;49.372;8.580;2023-04-24T07:09:25;21.90;80.70
32787;DHT22;19139;49.372;8.580;2023-04-24T07:11:52;21.90;80.50
32787;DHT22;19139;49.372;8.580;2023-04-24T07:14:20;21.90;80.60
32787;DHT22;19139;49.372;8.580;2023-04-24T07:16:47;21.90;80.60
32787;DHT22;19139;49.372;8.580;2023-04-24T07:19:13;21.90;80.40
32787;DHT22;19139;49.372;8.580;2023-04-24T07:21:40;21.90;80.40
32787;DHT22;19139;49.372;8.580;2023-04-24T07:24:07;21.90;80.40
32787;DHT22;19139;49.372;8.580;2023-04-24T07:26:42;21.80;80.20
32787;DHT22;19139;49.372;8.580;2023-04-24T07:29:13;21.80;80.40
32787;DHT22;19139;49.372;8.580;2023-04-24T07:31:45;21.90;80.60
32787;DHT22;19139;49.372;8.580;2023-04-24T07:34:17;21.90;80.60
32787;DHT22;19139;49.372;8.580;2023-04-24T07:36:48;21.90;80.60
32787;DHT22;19139;49.372;8.580;2023-04-24T07:39:15;21.90;80.60
32787;DHT22;19139;49.372;8.580;2023-04-24T07:41:46;21.80;80.20
32787;DHT22;19139;49.372;8.580;2023-04-24T07:44:13;21.80;80.50
32787;DHT22;19139;49.372;8.580;2023-04-24T07:46:40;21.80;80.60
32787;DHT22;19139;49.372;8.580;2023-04-24T07:49:07;21.90;80.60
32787;DHT22;19139;49.372;8.580;2023-04-24T07:51:40;21.80;80.50
32787;DHT22;19139;49.372;8.580;2023-04-24T07:54:08;21.90;81.40
32787;DHT22;19139;49.372;8.580;2023-04-24T07:56:34;21.80;80.40
32787;DHT22;19139;49.372;8.580;2023-04-24T07:59:05;21.80;80.50
32787;DHT22;19139;49.372;8.580;2023-04-24T08:01:32;21.80;80.50
32787;DHT22;19139;49.372;8.580;2023-04-24T08:03:59;21.80;80.50
32787;DHT22;19139;49.372;8.580;2023-04-24T08:06:26;21.80;80.50
32787;DHT22;19139;49.372;8.580;2023-04-24T08:08:57;21.80;80.50
32787;DHT22;19139;49.372;8.580;2023-04-24T08:11:24;21.80;80.20
32787;DHT22;19139;49.372;8.580;2023-04-24T08:13:56;21.80;80.50
32787;DHT22;19139;49.372;8.580;2023-04-24T08:16:27;21.80;80.50
32787;DHT22;19139;49.372;8.580;2023-04-24T08:18:59;21.80;80.60
32787;DHT22;19139;49.372;8.580;2023-04-24T08:21:31;21.80;80.60
32787;DHT22;19139;49.372;8.580;2023-04-24T08:24:03;21.80;80.60
32787;DHT22;19139;49.372;8.580;2023-04-24T08:26:33;21.80;80.60
32787;DHT22;19139;49.372;8.580;2023-04-24T08:29:00;21.80;80.60
32787;DHT22;19139;49.372;8.580;2023-04-24T08:31:27;21.80;80.50
32787;DHT22;19139;49.372;8.580;2023-04-24T08:33:53;21.80;80.50
32787;DHT22;19139;49.372;8.580;2023-04-24T08:36:20;21.80;80.60
32787;DHT22;19139;49.372;8.580;2023-04-24T08:38:52;21.80;80.50
32787;DHT22;19139;49.372;8.580;2023-04-24T08:41:24;21.80;80.60
32787;DHT22;19139;49.372;8.580;2023-04-24T08:43:52;21.80;80.40
32787;DHT22;19139;49.372;8.580;2023-04-24T08:46:20;21.80;80.60
32787;DHT22;19139;49.372;8.580;2023-04-24T08:48:46;21.80;80.60
32787;DHT22;19139;49.372;8.580;2023-04-24T08:51:14;21.70;80.40
32787;DHT22;19139;49.372;8.580;2023-04-24T08:53:41;21.80;80.60
32787;DHT22;19139;49.372;8.580;2023-04-24T08:56:09;21.80;80.60
32787;DHT22;19139;49.372;8.580;2023-04-24T08:58:38;21.80;80.60
32787;DHT22;19139;49.372;8.580;2023-04-24T09:01:05;21.80;80.50
32787;DHT22;19139;49.372;8.580;2023-04-24T09:03:33;21.80;80.50
32787;DHT22;19139;49.372;8.580;2023-04-24T09:06:06;21.80;80.50
32787;DHT22;19139;49.372;8.580;2023-04-24T09:08:39;21.80;80.50
32787;DHT22;19139;49.372;8.580;2023-04-24T09:11:12;21.80;80.40
32787;DHT22;19139;49.372;8.580;2023-04-24T09:13:39;21.80;80.50
32787;DHT22;19139;49.372;8.580;2023-04-24T09:16:06;21.80;80.60
32787;DHT22;19139;49.372;8.580;2023-04-24T09:18:32;21.80;80.50
32787;DHT22;19139;49.372;8.580;2023-04-24T09:21:02;21.80;80.50
32787;DHT22;19139;49.372;8.580;2023-04-24T09:23:30;21.80;80.50
32787;DHT22;19139;49.372;8.580;2023-04-24T09:25:58;21.70;80.40
32787;DHT22;19139;49.372;8.580;2023-04-24T09:28:31;21.80;80.50
32787;DHT22;19139;49.372;8.580;2023-04-24T09:31:12;21.70;80.40
32787;DHT22;19139;49.372;8.580;2023-04-24T09:33:40;21.70;80.40
32787;DHT22;19139;49.372;8.580;2023-04-24T09:36:19;21.80;80.50
32787;DHT22;19139;49.372;8.580;2023-04-24T09:38:45;21.80;80.60
32787;DHT22;19139;49.372;8.580;2023-04-24T09:41:13;21.80;80.50
32787;DHT22;19139;49.372;8.580;2023-04-24T09:43:40;21.70;80.50
32787;DHT22;19139;49.372;8.580;2023-04-24T09:46:07;21.70;80.40
32787;DHT22;19139;49.372;8.580;2023-04-24T09:48:40;21.80;80.40
32787;DHT22;19139;49.372;8.580;2023-04-24T09:51:07;21.80;80.50
32787;DHT22;19139;49.372;8.580;2023-04-24T09:53:46;21.80;80.40
32787;DHT22;19139;49.372;8.580;2023-04-24T09:56:17;21.80;80.40
32787;DHT22;19139;49.372;8.580;2023-04-24T09:58:49;21.80;80.40
32787;DHT22;19139;49.372;8.580;2023-04-24T10:01:31;21.80;80.40
32787;DHT22;19139;49.372;8.580;2023-04-24T10:03:58;21.80;80.40
32787;DHT22;19139;49.372;8.580;2023-04-24T10:06:34;21.80;80.40
32787;DHT22;19139;49.372;8.580;2023-04-24T10:09:02;21.80;80.40
32787;DHT22;19139;49.372;8.580;2023-04-24T10:11:30;21.80;80.40
32787;DHT22;19139;49.372;8.580;2023-04-24T10:13:57;21.80;80.40
32787;DHT22;19139;49.372;8.580;2023-04-24T10:16:25;21.80;80.40
32787;DHT22;19139;49.372;8.580;2023-04-24T10:18:54;21.80;80.40
32787;DHT22;19139;49.372;8.580;2023-04-24T10:21:26;21.80;80.40
32787;DHT22;19139;49.372;8.580;2023-04-24T10:23:59;21.80;80.30
32787;DHT22;19139;49.372;8.580;2023-04-24T10:26:31;21.70;80.40
32787;DHT22;19139;49.372;8.580;2023-04-24T10:29:05;21.70;80.40
32787;DHT22;19139;49.372;8.580;2023-04-24T10:31:32;21.80;80.40
32787;DHT22;19139;49.372;8.580;2023-04-24T10:34:00;21.70;80.40
32787;DHT22;19139;49.372;8.580;2023-04-24T10:36:29;21.80;80.40
32787;DHT22;19139;49.372;8.580;2023-04-24T10:38:56;21.70;80.40
32787;DHT22;19139;49.372;8.580;2023-04-24T10:41:26;21.70;80.40
32787;DHT22;19139;49.372;8.580;2023-04-24T10:44:08;21.70;80.40
32787;DHT22;19139;49.372;8.580;2023-04-24T10:46:36;21.70;80.30
32787;DHT22;19139;49.372;8.580;2023-04-24T10:49:05;21.70;80.30
32787;DHT22;19139;49.372;8.580;2023-04-24T10:51:52;21.70;80.20
32787;DHT22;19139;49.372;8.580;2023-04-24T10:54:35;21.70;80.20
32787;DHT22;19139;49.372;8.580;2023-04-24T11:02:41;21.80;80.20
32787;DHT22;19139;49.372;8.580;2023-04-24T11:05:21;21.70;80.10
32787;DHT22;19139;49.372;8.580;2023-04-24T11:08:12;21.80;80.20
32787;DHT22;19139;49.372;8.580;2023-04-24T11:10:47;21.80;80.20
32787;DHT22;19139;49.372;8.580;2023-04-24T11:13:21;21.80;80.10
32787;DHT22;19139;49.372;8.580;2023-04-24T11:16:19;21.80;80.10
32787;DHT22;19139;49.372;8.580;2023-04-24T11:18:51;21.80;80.00
32787;DHT22;19139;49.372;8.580;2023-04-24T11:21:22;21.80;80.00
32787;DHT22;19139;49.372;8.580;2023-04-24T11:23:53;21.80;80.10
32787;DHT22;19139;49.372;8.580;2023-04-24T11:26:25;21.80;80.00
32787;DHT22;19139;49.372;8.580;2023-04-24T11:29:08;21.80;79.90
32787;DHT22;19139;49.372;8.580;2023-04-24T11:34:09;21.80;80.00
32787;DHT22;19139;49.372;8.580;2023-04-24T11:36:37;21.80;80.00
32787;DHT22;19139;49.372;8.580;2023-04-24T11:39:04;21.80;80.00
32787;DHT22;19139;49.372;8.580;2023-04-24T11:41:32;21.80;80.00
32787;DHT22;19139;49.372;8.580;2023-04-24T11:43:59;21.80;80.00
32787;DHT22;19139;49.372;8.580;2023-04-24T11:46:28;21.80;80.00
32787;DHT22;19139;49.372;8.580;2023-04-24T11:48:56;21.80;80.00
32787;DHT22;19139;49.372;8.580;2023-04-24T11:51:24;21.80;79.90
32787;DHT22;19139;49.372;8.580;2023-04-24T11:54:07;21.80;80.00
32787;DHT22;19139;49.372;8.580;2023-04-24T11:56:33;21.80;79.90
32787;DHT22;19139;49.372;8.580;2023-04-24T11:59:04;21.80;79.90
32787;DHT22;19139;49.372;8.580;2023-04-24T12:01:45;21.80;79.90
32787;DHT22;19139;49.372;8.580;2023-04-24T12:04:18;21.80;79.80
32787;DHT22;19139;49.372;8.580;2023-04-24T12:07:00;21.80;79.90
32787;DHT22;19139;49.372;8.580;2023-04-24T12:09:28;21.80;79.90
32787;DHT22;19139;49.372;8.580;2023-04-24T12:11:55;21.80;79.90
32787;DHT22;19139;49.372;8.580;2023-04-24T12:14:24;21.80;79.90
32787;DHT22;19139;49.372;8.580;2023-04-24T12:16:50;21.80;79.90
32787;DHT22;19139;49.372;8.580;2023-04-24T12:19:22;21.80;79.90
32787;DHT22;19139;49.372;8.580;2023-04-24T12:22:03;21.80;79.90
32787;DHT22;19139;49.372;8.580;2023-04-24T12:24:55;21.80;79.90
32787;DHT22;19139;49.372;8.580;2023-04-24T12:27:23;21.90;79.90
32787;DHT22;19139;49.372;8.580;2023-04-24T12:29:56;21.90;79.90
32787;DHT22;19139;49.372;8.580;2023-04-24T12:32:24;21.80;79.80
32787;DHT22;19139;49.372;8.580;2023-04-24T12:34:54;21.80;79.70
32787;DHT22;19139;49.372;8.580;2023-04-24T12:37:26;21.90;79.90
32787;DHT22;19139;49.372;8.580;2023-04-24T12:42:27;21.90;79.90
32787;DHT22;19139;49.372;8.580;2023-04-24T12:45:03;21.90;79.80
32787;DHT22;19139;49.372;8.580;2023-04-24T12:47:31;21.90;79.80
32787;DHT22;19139;49.372;8.580;2023-04-24T12:49:59;21.90;79.90
32787;DHT22;19139;49.372;8.580;2023-04-24T12:52:30;21.90;79.80
32787;DHT22;19139;49.372;8.580;2023-04-24T12:54:59;21.90;79.80
32787;DHT22;19139;49.372;8.580;2023-04-24T12:57:28;21.90;79.80
32787;DHT22;19139;49.372;8.580;2023-04-24T12:59:55;21.90;79.80
32787;DHT22;19139;49.372;8.580;2023-04-24T13:02:23;21.90;79.70
32787;DHT22;19139;49.372;8.580;2023-04-24T13:04:50;21.90;79.70
32787;DHT22;19139;49.372;8.580;2023-04-24T13:07:17;21.90;79.80
32787;DHT22;19139;49.372;8.580;2023-04-24T13:09:44;22.00;79.90
32787;DHT22;19139;49.372;8.580;2023-04-24T13:12:12;21.90;79.90
32787;DHT22;19139;49.372;8.580;2023-04-24T13:14:39;22.00;79.90
32787;DHT22;19139;49.372;8.580;2023-04-24T13:17:05;21.90;79.80
32787;DHT22;19139;49.372;8.580;2023-04-24T13:19:38;21.90;79.90
32787;DHT22;19139;49.372;8.580;2023-04-24T13:22:06;21.90;79.90
32787;DHT22;19139;49.372;8.580;2023-04-24T13:24:33;22.00;79.90
32787;DHT22;19139;49.372;8.580;2023-04-24T13:27:00;21.90;79.90
32787;DHT22;19139;49.372;8.580;2023-04-24T13:29:27;21.90;79.90
32787;DHT22;19139;49.372;8.580;2023-04-24T13:31:54;21.90;79.90
32787;DHT22;19139;49.372;8.580;2023-04-24T13:34:27;21.90;79.90
32787;DHT22;19139;49.372;8.580;2023-04-24T13:36:55;21.90;80.00
32787;DHT22;19139;49.372;8.580;2023-04-24T13:39:27;22.00;80.00
32787;DHT22;19139;49.372;8.580;2023-04-24T13:41:59;22.00;79.90
32787;DHT22;19139;49.372;8.580;2023-04-24T13:44:28;22.00;79.90
32787;DHT22;19139;49.372;8.580;2023-04-24T13:47:00;22.00;80.00
32787;DHT22;19139;49.372;8.580;2023-04-24T13:49:26;22.00;80.00
32787;DHT22;19139;49.372;8.580;2023-04-24T13:51:54;21.90;80.00
32787;DHT22;19139;49.372;8.580;2023-04-24T13:54:21;22.00;80.00
32787;DHT22;19139;49.372;8.580;2023-04-24T13:56:50;22.00;80.80
32787;DHT22;19139;49.372;8.580;2023-04-24T13:59:17;21.90;80.00
32787;DHT22;19139;49.372;8.580;2023-04-24T14:01:44;21.90;79.90
32787;DHT22;19139;49.372;8.580;2023-04-24T14:04:11;21.90;80.00
32787;DHT22;19139;49.372;8.580;2023-04-24T14:06:38;21.90;80.00
32787;DHT22;19139;49.372;8.580;2023-04-24T14:09:06;21.90;80.00
32787;DHT22;19139;49.372;8.580;2023-04-24T14:11:33;21.90;80.10
32787;DHT22;19139;49.372;8.580;2023-04-24T14:14:00;21.90;80.00
32787;DHT22;19139;49.372;8.580;2023-04-24T14:16:28;21.90;80.30
32787;DHT22;19139;49.372;8.580;2023-04-24T14:18:55;21.90;80.00
32787;DHT22;19139;49.372;8.580;2023-04-24T14:21:22;21.90;79.80
32787;DHT22;19139;49.372;8.580;2023-04-24T14:23:49;21.90;79.90
32787;DHT22;19139;49.372;8.580;2023-04-24T14:26:15;21.90;79.90
32787;DHT22;19139;49.372;8.580;2023-04-24T14:28:42;21.90;79.90
32787;DHT22;19139;49.372;8.580;2023-04-24T14:31:09;21.90;79.80
32787;DHT22;19139;49.372;8.580;2023-04-24T14:33:36;21.90;79.70
32787;DHT22;19139;49.372;8.580;2023-04-24T14:36:02;21.90;79.70
32787;DHT22;19139;49.372;8.580;2023-04-24T14:38:30;21.90;79.70
32787;DHT22;19139;49.372;8.580;2023-04-24T14:40:57;21.90;79.70
32787;DHT22;19139;49.372;8.580;2023-04-24T14:43:33;21.90;79.70
32787;DHT22;19139;49.372;8.580;2023-04-24T14:46:01;22.00;79.80
32787;DHT22;19139;49.372;8.580;2023-04-24T14:48:28;21.90;79.70
32787;DHT22;19139;49.372;8.580;2023-04-24T14:51:00;21.90;79.70
32787;DHT22;19139;49.372;8.580;2023-04-24T14:53:26;21.90;79.70
32787;DHT22;19139;49.372;8.580;2023-04-24T14:55:58;21.90;79.70
32787;DHT22;19139;49.372;8.580;2023-04-24T14:58:25;21.90;79.80
32787;DHT22;19139;49.372;8.580;2023-04-24T15:00:51;21.90;79.60
32787;DHT22;19139;49.372;8.580;2023-04-24T15:03:20;21.90;79.80
32787;DHT22;19139;49.372;8.580;2023-04-24T15:05:48;21.90;79.70
32787;DHT22;19139;49.372;8.580;2023-04-24T15:08:15;22.00;79.70
32787;DHT22;19139;49.372;8.580;2023-04-24T15:10:42;21.90;79.70
32787;DHT22;19139;49.372;8.580;2023-04-24T15:13:09;21.90;79.80
32787;DHT22;19139;49.372;8.580;2023-04-24T15:15:41;21.90;79.70
32787;DHT22;19139;49.372;8.580;2023-04-24T15:18:08;21.90;79.70
32787;DHT22;19139;49.372;8.580;2023-04-24T15:20:37;22.00;79.70
32787;DHT22;19139;49.372;8.580;2023-04-24T15:23:13;21.90;79.70
32787;DHT22;19139;49.372;8.580;2023-04-24T15:25:41;21.90;79.70
32787;DHT22;19139;49.372;8.580;2023-04-24T15:28:10;21.90;79.70
32787;DHT22;19139;49.372;8.580;2023-04-24T15:30:37;21.90;79.70
32787;DHT22;19139;49.372;8.580;2023-04-24T15:33:03;21.90;79.70
32787;DHT22;19139;49.372;8.580;2023-04-24T15:35:30;22.00;79.70
32787;DHT22;19139;49.372;8.580;2023-04-24T15:38:02;21.90;79.60
32787;DHT22;19139;49.372;8.580;2023-04-24T15:40:30;21.90;79.70
32787;DHT22;19139;49.372;8.580;2023-04-24T15:42:57;21.90;79.70
32787;DHT22;19139;49.372;8.580;2023-04-24T15:45:24;21.90;79.70
32787;DHT22;19139;49.372;8.580;2023-04-24T15:47:51;21.90;79.70
32787;DHT22;19139;49.372;8.580;2023-04-24T15:50:18;21.90;79.70
32787;DHT22;19139;49.372;8.580;2023-04-24T15:52:47;21.90;79.70